Terminal Aerodrome Forecast
Issued by NWS

Home | Current Version | Previous Version | Text Only | Print | Product List | Glossary On
Versions: 1 2 3 4 5 6 7 8 9 10 11 12 13 14 15 16 17 18 19
725
FTUS45 KTFX 141138
TAFBZN
TAF
KBZN 141138Z 1412/1512 25005KT P6SM BKN060 BKN100
     FM141800 28015G22KT P6SM SCT030 BKN060
      TEMPO 1420/1424 -SHRA BKN030
     FM150400 25008KT P6SM VCSH SCT025 BKN045 PROB30 1504/1509 4SM
      -SN BKN025=

USA.gov is the U.S. government's official web portal to all federal, state and local government web resources and services.